sensor_id;sensor_type;location;lat;lon;timestamp;temperature;humidity
19496;DHT22;9888;48.606;9.630;2023-02-03T00:02:26;3.90;99.90
19496;DHT22;9888;48.606;9.630;2023-02-03T00:04:53;3.90;99.90
19496;DHT22;9888;48.606;9.630;2023-02-03T00:07:20;3.90;99.90
19496;DHT22;9888;48.606;9.630;2023-02-03T00:09:47;3.90;99.90
19496;DHT22;9888;48.606;9.630;2023-02-03T00:12:14;3.90;99.90
19496;DHT22;9888;48.606;9.630;2023-02-03T00:14:41;3.90;99.90
19496;DHT22;9888;48.606;9.630;2023-02-03T00:17:09;3.80;99.90
19496;DHT22;9888;48.606;9.630;2023-02-03T00:19:37;3.90;99.90
19496;DHT22;9888;48.606;9.630;2023-02-03T00:22:04;3.90;99.90
19496;DHT22;9888;48.606;9.630;2023-02-03T00:24:31;3.90;99.90
19496;DHT22;9888;48.606;9.630;2023-02-03T00:26:59;3.90;99.90
19496;DHT22;9888;48.606;9.630;2023-02-03T00:29:27;3.90;99.90
19496;DHT22;9888;48.606;9.630;2023-02-03T00:31:54;3.90;99.90
19496;DHT22;9888;48.606;9.630;2023-02-03T00:34:26;3.90;99.90
19496;DHT22;9888;48.606;9.630;2023-02-03T00:36:55;3.90;99.90
19496;DHT22;9888;48.606;9.630;2023-02-03T00:39:23;3.90;99.90
19496;DHT22;9888;48.606;9.630;2023-02-03T00:41:50;3.90;99.90
19496;DHT22;9888;48.606;9.630;2023-02-03T00:44:18;3.90;99.90
19496;DHT22;9888;48.606;9.630;2023-02-03T00:46:45;3.90;99.90
19496;DHT22;9888;48.606;9.630;2023-02-03T00:49:12;3.90;99.90
19496;DHT22;9888;48.606;9.630;2023-02-03T00:51:39;3.80;99.90
19496;DHT22;9888;48.606;9.630;2023-02-03T00:54:07;3.80;99.90
19496;DHT22;9888;48.606;9.630;2023-02-03T00:56:41;3.80;99.90
19496;DHT22;9888;48.606;9.630;2023-02-03T00:59:09;3.80;99.90
19496;DHT22;9888;48.606;9.630;2023-02-03T01:01:36;3.80;99.90
19496;DHT22;9888;48.606;9.630;2023-02-03T01:04:04;3.80;99.90
19496;DHT22;9888;48.606;9.630;2023-02-03T01:06:52;3.90;99.90
19496;DHT22;9888;48.606;9.630;2023-02-03T01:09:23;3.90;99.90
19496;DHT22;9888;48.606;9.630;2023-02-03T01:11:51;3.90;99.90
19496;DHT22;9888;48.606;9.630;2023-02-03T01:14:18;3.90;99.90
19496;DHT22;9888;48.606;9.630;2023-02-03T01:16:45;3.80;99.90
19496;DHT22;9888;48.606;9.630;2023-02-03T01:19:16;3.80;99.90
19496;DHT22;9888;48.606;9.630;2023-02-03T01:21:43;3.80;99.90
19496;DHT22;9888;48.606;9.630;2023-02-03T01:24:19;3.80;99.90
19496;DHT22;9888;48.606;9.630;2023-02-03T01:26:47;3.80;99.90
19496;DHT22;9888;48.606;9.630;2023-02-03T01:29:14;3.80;99.90
19496;DHT22;9888;48.606;9.630;2023-02-03T01:31:43;3.80;99.90
19496;DHT22;9888;48.606;9.630;2023-02-03T01:34:13;3.70;99.90
19496;DHT22;9888;48.606;9.630;2023-02-03T01:36:41;3.70;99.90
19496;DHT22;9888;48.606;9.630;2023-02-03T01:39:09;3.70;99.90
19496;DHT22;9888;48.606;9.630;2023-02-03T01:41:37;3.70;99.90
19496;DHT22;9888;48.606;9.630;2023-02-03T01:47:04;3.80;99.90
19496;DHT22;9888;48.606;9.630;2023-02-03T01:49:38;3.90;99.90
19496;DHT22;9888;48.606;9.630;2023-02-03T01:52:06;3.80;99.90
19496;DHT22;9888;48.606;9.630;2023-02-03T01:54:38;3.80;99.90
19496;DHT22;9888;48.606;9.630;2023-02-03T01:57:15;3.80;99.90
19496;DHT22;9888;48.606;9.630;2023-02-03T01:59:43;3.70;99.90
19496;DHT22;9888;48.606;9.630;2023-02-03T02:02:11;3.70;99.90
19496;DHT22;9888;48.606;9.630;2023-02-03T02:08:01;3.70;99.90
19496;DHT22;9888;48.606;9.630;2023-02-03T02:10:30;3.70;99.90
19496;DHT22;9888;48.606;9.630;2023-02-03T02:13:00;3.70;99.90
19496;DHT22;9888;48.606;9.630;2023-02-03T02:16:11;3.70;99.90
19496;DHT22;9888;48.606;9.630;2023-02-03T02:21:50;3.70;99.90
19496;DHT22;9888;48.606;9.630;2023-02-03T02:24:34;3.70;99.90
19496;DHT22;9888;48.606;9.630;2023-02-03T02:27:30;3.60;99.90
19496;DHT22;9888;48.606;9.630;2023-02-03T02:35:50;3.60;99.90
19496;DHT22;9888;48.606;9.630;2023-02-03T02:38:49;3.60;99.90
19496;DHT22;9888;48.606;9.630;2023-02-03T02:41:28;3.60;99.90
19496;DHT22;9888;48.606;9.630;2023-02-03T02:44:17;3.50;99.90
19496;DHT22;9888;48.606;9.630;2023-02-03T02:46:53;3.60;99.90
19496;DHT22;9888;48.606;9.630;2023-02-03T02:51:59;3.60;99.90
19496;DHT22;9888;48.606;9.630;2023-02-03T02:54:36;3.60;99.90
19496;DHT22;9888;48.606;9.630;2023-02-03T02:57:09;3.70;99.90
19496;DHT22;9888;48.606;9.630;2023-02-03T02:59:38;3.70;99.90
19496;DHT22;9888;48.606;9.630;2023-02-03T03:02:05;3.70;99.90
19496;DHT22;9888;48.606;9.630;2023-02-03T03:04:33;3.70;99.90
19496;DHT22;9888;48.606;9.630;2023-02-03T03:07:12;3.80;99.90
19496;DHT22;9888;48.606;9.630;2023-02-03T03:09:46;3.70;99.90
19496;DHT22;9888;48.606;9.630;2023-02-03T03:12:29;3.70;99.90
19496;DHT22;9888;48.606;9.630;2023-02-03T03:15:13;3.80;99.90
19496;DHT22;9888;48.606;9.630;2023-02-03T03:18:12;3.80;99.90
19496;DHT22;9888;48.606;9.630;2023-02-03T03:20:38;3.80;99.90
19496;DHT22;9888;48.606;9.630;2023-02-03T03:23:27;3.90;99.90
19496;DHT22;9888;48.606;9.630;2023-02-03T03:28:50;3.90;99.90
19496;DHT22;9888;48.606;9.630;2023-02-03T03:31:19;4.00;99.90
19496;DHT22;9888;48.606;9.630;2023-02-03T03:33:47;4.00;99.90
19496;DHT22;9888;48.606;9.630;2023-02-03T03:36:24;4.00;99.90
19496;DHT22;9888;48.606;9.630;2023-02-03T03:39:19;4.10;99.90
19496;DHT22;9888;48.606;9.630;2023-02-03T03:44:47;4.10;99.90
19496;DHT22;9888;48.606;9.630;2023-02-03T03:47:41;4.10;99.90
19496;DHT22;9888;48.606;9.630;2023-02-03T03:50:20;4.10;99.90
19496;DHT22;9888;48.606;9.630;2023-02-03T03:52:53;4.10;99.90
19496;DHT22;9888;48.606;9.630;2023-02-03T03:55:21;4.10;99.90
19496;DHT22;9888;48.606;9.630;2023-02-03T04:00:20;4.10;99.90
19496;DHT22;9888;48.606;9.630;2023-02-03T04:02:53;4.10;99.90
19496;DHT22;9888;48.606;9.630;2023-02-03T04:05:22;4.10;99.90
19496;DHT22;9888;48.606;9.630;2023-02-03T04:07:51;4.10;99.90
19496;DHT22;9888;48.606;9.630;2023-02-03T04:10:30;4.00;99.90
19496;DHT22;9888;48.606;9.630;2023-02-03T04:12:57;4.00;99.90
19496;DHT22;9888;48.606;9.630;2023-02-03T04:15:25;4.00;99.90
19496;DHT22;9888;48.606;9.630;2023-02-03T04:17:53;4.00;99.90
19496;DHT22;9888;48.606;9.630;2023-02-03T04:20:23;3.90;99.90
19496;DHT22;9888;48.606;9.630;2023-02-03T04:22:51;4.00;99.90
19496;DHT22;9888;48.606;9.630;2023-02-03T04:25:19;3.90;99.90
19496;DHT22;9888;48.606;9.630;2023-02-03T04:27:47;3.90;99.90
19496;DHT22;9888;48.606;9.630;2023-02-03T04:30:15;3.90;99.90
19496;DHT22;9888;48.606;9.630;2023-02-03T04:32:45;3.90;99.90
19496;DHT22;9888;48.606;9.630;2023-02-03T04:35:16;3.90;99.90
19496;DHT22;9888;48.606;9.630;2023-02-03T04:37:44;3.90;99.90
19496;DHT22;9888;48.606;9.630;2023-02-03T04:40:13;3.90;99.90
19496;DHT22;9888;48.606;9.630;2023-02-03T04:42:40;3.90;99.90
19496;DHT22;9888;48.606;9.630;2023-02-03T04:45:09;4.00;99.90
19496;DHT22;9888;48.606;9.630;2023-02-03T04:47:37;4.00;99.90
19496;DHT22;9888;48.606;9.630;2023-02-03T04:50:05;4.00;99.90
19496;DHT22;9888;48.606;9.630;2023-02-03T04:52:34;3.90;99.90
19496;DHT22;9888;48.606;9.630;2023-02-03T04:55:06;3.80;99.90
19496;DHT22;9888;48.606;9.630;2023-02-03T04:57:34;3.90;99.90
19496;DHT22;9888;48.606;9.630;2023-02-03T05:00:04;3.90;99.90
19496;DHT22;9888;48.606;9.630;2023-02-03T05:02:32;3.80;99.90
19496;DHT22;9888;48.606;9.630;2023-02-03T05:04:59;3.90;99.90
19496;DHT22;9888;48.606;9.630;2023-02-03T05:07:27;3.90;99.90
19496;DHT22;9888;48.606;9.630;2023-02-03T05:09:55;4.00;99.90
19496;DHT22;9888;48.606;9.630;2023-02-03T05:12:22;4.00;99.90
19496;DHT22;9888;48.606;9.630;2023-02-03T05:14:48;3.90;99.90
19496;DHT22;9888;48.606;9.630;2023-02-03T05:17:15;3.90;99.90
19496;DHT22;9888;48.606;9.630;2023-02-03T05:20:17;4.00;99.90
19496;DHT22;9888;48.606;9.630;2023-02-03T05:22:45;3.90;99.90
19496;DHT22;9888;48.606;9.630;2023-02-03T05:25:12;4.00;99.90
19496;DHT22;9888;48.606;9.630;2023-02-03T05:27:40;4.00;99.90
19496;DHT22;9888;48.606;9.630;2023-02-03T05:30:09;3.90;99.90
19496;DHT22;9888;48.606;9.630;2023-02-03T05:32:36;3.90;99.90
19496;DHT22;9888;48.606;9.630;2023-02-03T05:35:04;3.90;99.90
19496;DHT22;9888;48.606;9.630;2023-02-03T05:37:33;3.80;99.90
19496;DHT22;9888;48.606;9.630;2023-02-03T05:40:01;3.80;99.90
19496;DHT22;9888;48.606;9.630;2023-02-03T05:42:51;3.70;99.90
19496;DHT22;9888;48.606;9.630;2023-02-03T05:45:20;3.60;99.90
19496;DHT22;9888;48.606;9.630;2023-02-03T05:47:47;3.60;99.90
19496;DHT22;9888;48.606;9.630;2023-02-03T05:50:15;3.50;99.90
19496;DHT22;9888;48.606;9.630;2023-02-03T05:53:07;3.50;99.90
19496;DHT22;9888;48.606;9.630;2023-02-03T05:56:01;3.50;99.90
19496;DHT22;9888;48.606;9.630;2023-02-03T05:58:30;3.50;99.90
19496;DHT22;9888;48.606;9.630;2023-02-03T06:00:59;3.50;99.90
19496;DHT22;9888;48.606;9.630;2023-02-03T06:03:27;3.50;99.90
19496;DHT22;9888;48.606;9.630;2023-02-03T06:05:54;3.60;99.90
19496;DHT22;9888;48.606;9.630;2023-02-03T06:08:22;3.60;99.90
19496;DHT22;9888;48.606;9.630;2023-02-03T06:10:58;3.50;99.90
19496;DHT22;9888;48.606;9.630;2023-02-03T06:13:27;3.50;99.90
19496;DHT22;9888;48.606;9.630;2023-02-03T06:15:54;3.50;99.90
19496;DHT22;9888;48.606;9.630;2023-02-03T06:18:28;3.40;99.90
19496;DHT22;9888;48.606;9.630;2023-02-03T06:20:58;3.50;99.90
19496;DHT22;9888;48.606;9.630;2023-02-03T06:23:25;3.40;99.90
19496;DHT22;9888;48.606;9.630;2023-02-03T06:25:53;3.40;99.90
19496;DHT22;9888;48.606;9.630;2023-02-03T06:28:21;3.40;99.90
19496;DHT22;9888;48.606;9.630;2023-02-03T06:30:53;3.40;99.90
19496;DHT22;9888;48.606;9.630;2023-02-03T06:33:21;3.50;99.90
19496;DHT22;9888;48.606;9.630;2023-02-03T06:35:50;3.50;99.90
19496;DHT22;9888;48.606;9.630;2023-02-03T06:38:19;3.50;99.90
19496;DHT22;9888;48.606;9.630;2023-02-03T06:40:47;3.50;99.90
19496;DHT22;9888;48.606;9.630;2023-02-03T06:43:16;3.60;99.90
19496;DHT22;9888;48.606;9.630;2023-02-03T06:45:47;3.60;99.90
19496;DHT22;9888;48.606;9.630;2023-02-03T06:48:14;3.60;99.90
19496;DHT22;9888;48.606;9.630;2023-02-03T06:50:43;3.60;99.90
19496;DHT22;9888;48.606;9.630;2023-02-03T06:53:10;3.60;99.90
19496;DHT22;9888;48.606;9.630;2023-02-03T06:55:37;3.60;99.90
19496;DHT22;9888;48.606;9.630;2023-02-03T07:08:11;3.50;99.90
19496;DHT22;9888;48.606;9.630;2023-02-03T07:10:39;3.40;99.90
19496;DHT22;9888;48.606;9.630;2023-02-03T07:13:07;3.40;99.90
19496;DHT22;9888;48.606;9.630;2023-02-03T07:15:34;3.50;99.90
19496;DHT22;9888;48.606;9.630;2023-02-03T07:18:02;3.50;99.90
19496;DHT22;9888;48.606;9.630;2023-02-03T07:20:29;3.50;99.90
19496;DHT22;9888;48.606;9.630;2023-02-03T07:23:01;3.50;99.90
19496;DHT22;9888;48.606;9.630;2023-02-03T07:25:31;3.50;99.90
19496;DHT22;9888;48.606;9.630;2023-02-03T07:28:15;3.60;99.90
19496;DHT22;9888;48.606;9.630;2023-02-03T07:30:46;3.60;99.90
19496;DHT22;9888;48.606;9.630;2023-02-03T07:33:16;3.60;99.90
19496;DHT22;9888;48.606;9.630;2023-02-03T07:35:56;3.70;99.90
19496;DHT22;9888;48.606;9.630;2023-02-03T07:38:26;3.70;99.90
19496;DHT22;9888;48.606;9.630;2023-02-03T07:40:54;3.70;99.90
19496;DHT22;9888;48.606;9.630;2023-02-03T07:43:22;3.70;99.90
19496;DHT22;9888;48.606;9.630;2023-02-03T07:46:00;3.70;99.90
19496;DHT22;9888;48.606;9.630;2023-02-03T07:48:27;3.80;99.90
19496;DHT22;9888;48.606;9.630;2023-02-03T07:50:55;3.80;99.90
19496;DHT22;9888;48.606;9.630;2023-02-03T07:53:22;3.80;99.90
19496;DHT22;9888;48.606;9.630;2023-02-03T07:55:50;3.90;99.90
19496;DHT22;9888;48.606;9.630;2023-02-03T07:58:17;3.90;99.90
19496;DHT22;9888;48.606;9.630;2023-02-03T08:00:48;4.00;99.90
19496;DHT22;9888;48.606;9.630;2023-02-03T08:03:16;4.00;99.90
19496;DHT22;9888;48.606;9.630;2023-02-03T08:05:44;4.00;99.90
19496;DHT22;9888;48.606;9.630;2023-02-03T08:08:16;4.10;99.90
19496;DHT22;9888;48.606;9.630;2023-02-03T08:10:43;4.00;99.90
19496;DHT22;9888;48.606;9.630;2023-02-03T08:13:11;4.00;99.90
19496;DHT22;9888;48.606;9.630;2023-02-03T08:18:46;4.00;99.90
19496;DHT22;9888;48.606;9.630;2023-02-03T08:21:14;4.00;99.90
19496;DHT22;9888;48.606;9.630;2023-02-03T08:23:43;4.00;99.90
19496;DHT22;9888;48.606;9.630;2023-02-03T08:26:13;4.00;99.90
19496;DHT22;9888;48.606;9.630;2023-02-03T08:28:41;4.10;99.90
19496;DHT22;9888;48.606;9.630;2023-02-03T08:31:12;4.20;99.90
19496;DHT22;9888;48.606;9.630;2023-02-03T08:33:40;4.20;99.90
19496;DHT22;9888;48.606;9.630;2023-02-03T08:36:08;4.10;99.90
19496;DHT22;9888;48.606;9.630;2023-02-03T08:38:39;4.00;99.90
19496;DHT22;9888;48.606;9.630;2023-02-03T08:41:12;4.00;99.90
19496;DHT22;9888;48.606;9.630;2023-02-03T08:43:39;3.90;99.90
19496;DHT22;9888;48.606;9.630;2023-02-03T08:46:10;3.90;99.90
19496;DHT22;9888;48.606;9.630;2023-02-03T08:48:38;3.80;99.90
19496;DHT22;9888;48.606;9.630;2023-02-03T08:51:14;3.80;99.90
19496;DHT22;9888;48.606;9.630;2023-02-03T08:53:42;3.80;99.90
19496;DHT22;9888;48.606;9.630;2023-02-03T08:56:15;3.80;99.90
19496;DHT22;9888;48.606;9.630;2023-02-03T08:58:43;3.80;99.90
19496;DHT22;9888;48.606;9.630;2023-02-03T09:01:12;3.80;99.90
19496;DHT22;9888;48.606;9.630;2023-02-03T09:03:41;3.90;99.90
19496;DHT22;9888;48.606;9.630;2023-02-03T09:06:09;3.90;99.90
19496;DHT22;9888;48.606;9.630;2023-02-03T09:08:45;3.90;99.90
19496;DHT22;9888;48.606;9.630;2023-02-03T09:11:16;4.00;99.90
19496;DHT22;9888;48.606;9.630;2023-02-03T09:13:43;4.00;99.90
19496;DHT22;9888;48.606;9.630;2023-02-03T09:16:17;4.00;99.90
19496;DHT22;9888;48.606;9.630;2023-02-03T09:18:47;3.90;99.90
19496;DHT22;9888;48.606;9.630;2023-02-03T09:21:16;3.90;99.90
19496;DHT22;9888;48.606;9.630;2023-02-03T09:23:45;3.90;99.90
19496;DHT22;9888;48.606;9.630;2023-02-03T09:26:14;3.90;99.90
19496;DHT22;9888;48.606;9.630;2023-02-03T09:28:42;3.90;99.90
19496;DHT22;9888;48.606;9.630;2023-02-03T09:31:11;4.00;99.90
19496;DHT22;9888;48.606;9.630;2023-02-03T09:33:40;4.00;99.90
19496;DHT22;9888;48.606;9.630;2023-02-03T09:36:08;4.10;99.90
19496;DHT22;9888;48.606;9.630;2023-02-03T09:38:36;4.10;99.90
19496;DHT22;9888;48.606;9.630;2023-02-03T09:44:07;4.10;99.90
19496;DHT22;9888;48.606;9.630;2023-02-03T09:46:43;4.10;99.90
19496;DHT22;9888;48.606;9.630;2023-02-03T09:54:45;4.10;99.90
19496;DHT22;9888;48.606;9.630;2023-02-03T09:57:21;4.10;99.90
19496;DHT22;9888;48.606;9.630;2023-02-03T09:59:53;4.10;99.90
19496;DHT22;9888;48.606;9.630;2023-02-03T10:06:09;4.20;99.90
19496;DHT22;9888;48.606;9.630;2023-02-03T10:08:34;4.20;99.90
19496;DHT22;9888;48.606;9.630;2023-02-03T10:11:29;4.20;99.90
19496;DHT22;9888;48.606;9.630;2023-02-03T10:22:42;4.50;99.90
19496;DHT22;9888;48.606;9.630;2023-02-03T10:25:32;4.50;99.90
19496;DHT22;9888;48.606;9.630;2023-02-03T10:28:09;4.50;99.90
19496;DHT22;9888;48.606;9.630;2023-02-03T10:30:45;4.40;99.90
19496;DHT22;9888;48.606;9.630;2023-02-03T10:33:17;4.40;99.90
19496;DHT22;9888;48.606;9.630;2023-02-03T10:38:54;4.50;99.90
19496;DHT22;9888;48.606;9.630;2023-02-03T10:41:28;4.50;99.90
19496;DHT22;9888;48.606;9.630;2023-02-03T10:43:57;4.50;99.90
19496;DHT22;9888;48.606;9.630;2023-02-03T10:46:31;4.50;99.90
19496;DHT22;9888;48.606;9.630;2023-02-03T10:49:01;4.50;99.90
19496;DHT22;9888;48.606;9.630;2023-02-03T10:54:36;4.50;99.90
19496;DHT22;9888;48.606;9.630;2023-02-03T10:57:16;4.60;99.90
19496;DHT22;9888;48.606;9.630;2023-02-03T10:59:46;4.50;99.90
19496;DHT22;9888;48.606;9.630;2023-02-03T11:02:40;4.60;99.90
19496;DHT22;9888;48.606;9.630;2023-02-03T11:05:27;4.60;99.90
19496;DHT22;9888;48.606;9.630;2023-02-03T11:07:54;4.70;99.90
19496;DHT22;9888;48.606;9.630;2023-02-03T11:10:37;4.70;99.90
19496;DHT22;9888;48.606;9.630;2023-02-03T11:13:25;4.90;99.90
19496;DHT22;9888;48.606;9.630;2023-02-03T11:24:02;4.60;99.90
19496;DHT22;9888;48.606;9.630;2023-02-03T11:26:55;4.70;99.90
19496;DHT22;9888;48.606;9.630;2023-02-03T11:29:26;4.60;99.90
19496;DHT22;9888;48.606;9.630;2023-02-03T11:31:59;4.60;99.90
19496;DHT22;9888;48.606;9.630;2023-02-03T11:34:30;4.70;99.90
19496;DHT22;9888;48.606;9.630;2023-02-03T11:37:37;4.90;99.90
19496;DHT22;9888;48.606;9.630;2023-02-03T11:42:41;4.90;99.90
19496;DHT22;9888;48.606;9.630;2023-02-03T11:45:33;5.00;99.90
19496;DHT22;9888;48.606;9.630;2023-02-03T11:50:58;5.00;99.90
19496;DHT22;9888;48.606;9.630;2023-02-03T11:53:31;4.90;99.90
19496;DHT22;9888;48.606;9.630;2023-02-03T11:58:52;4.60;99.90
19496;DHT22;9888;48.606;9.630;2023-02-03T12:01:51;4.60;99.90
19496;DHT22;9888;48.606;9.630;2023-02-03T12:04:43;4.60;99.90
19496;DHT22;9888;48.606;9.630;2023-02-03T12:16:05;4.70;99.90
19496;DHT22;9888;48.606;9.630;2023-02-03T12:19:07;4.60;99.90
19496;DHT22;9888;48.606;9.630;2023-02-03T12:21:57;4.70;99.90
19496;DHT22;9888;48.606;9.630;2023-02-03T12:30:31;4.50;99.90
19496;DHT22;9888;48.606;9.630;2023-02-03T12:38:44;4.70;99.90
19496;DHT22;9888;48.606;9.630;2023-02-03T12:41:36;4.70;99.90
19496;DHT22;9888;48.606;9.630;2023-02-03T12:44:13;4.70;99.90
19496;DHT22;9888;48.606;9.630;2023-02-03T12:46:54;4.50;99.90
19496;DHT22;9888;48.606;9.630;2023-02-03T12:49:39;4.60;99.90
19496;DHT22;9888;48.606;9.630;2023-02-03T12:52:14;4.70;99.90
19496;DHT22;9888;48.606;9.630;2023-02-03T12:55:06;4.70;99.90
19496;DHT22;9888;48.606;9.630;2023-02-03T12:57:59;4.70;99.90
19496;DHT22;9888;48.606;9.630;2023-02-03T13:06:10;4.80;99.90
19496;DHT22;9888;48.606;9.630;2023-02-03T13:14:40;4.80;99.90
19496;DHT22;9888;48.606;9.630;2023-02-03T13:17:43;4.80;99.90
19496;DHT22;9888;48.606;9.630;2023-02-03T13:20:24;4.90;99.90
19496;DHT22;9888;48.606;9.630;2023-02-03T13:22:53;4.90;99.90
19496;DHT22;9888;48.606;9.630;2023-02-03T13:28:39;4.90;99.90
19496;DHT22;9888;48.606;9.630;2023-02-03T13:34:47;4.70;99.90
19496;DHT22;9888;48.606;9.630;2023-02-03T13:40:50;4.60;99.90
19496;DHT22;9888;48.606;9.630;2023-02-03T13:43:42;4.60;99.90
19496;DHT22;9888;48.606;9.630;2023-02-03T13:46:21;4.60;99.90
19496;DHT22;9888;48.606;9.630;2023-02-03T13:48:53;4.60;99.90
19496;DHT22;9888;48.606;9.630;2023-02-03T13:51:30;4.70;99.90
19496;DHT22;9888;48.606;9.630;2023-02-03T13:54:07;4.70;99.90
19496;DHT22;9888;48.606;9.630;2023-02-03T13:56:41;4.60;99.90
19496;DHT22;9888;48.606;9.630;2023-02-03T14:04:56;4.60;99.90
19496;DHT22;9888;48.606;9.630;2023-02-03T14:07:33;4.60;99.90
19496;DHT22;9888;48.606;9.630;2023-02-03T14:10:20;4.60;99.90
19496;DHT22;9888;48.606;9.630;2023-02-03T14:18:48;4.60;99.90
19496;DHT22;9888;48.606;9.630;2023-02-03T14:21:19;4.60;99.90
19496;DHT22;9888;48.606;9.630;2023-02-03T14:24:03;4.70;99.90
19496;DHT22;9888;48.606;9.630;2023-02-03T14:26:40;4.70;99.90
19496;DHT22;9888;48.606;9.630;2023-02-03T14:29:33;4.70;99.90
19496;DHT22;9888;48.606;9.630;2023-02-03T14:32:11;4.70;99.90
19496;DHT22;9888;48.606;9.630;2023-02-03T14:34:53;4.60;99.90
19496;DHT22;9888;48.606;9.630;2023-02-03T14:37:29;4.60;99.90
19496;DHT22;9888;48.606;9.630;2023-02-03T14:41:02;4.60;99.90
19496;DHT22;9888;48.606;9.630;2023-02-03T14:45:59;4.60;99.90
19496;DHT22;9888;48.606;9.630;2023-02-03T14:48:57;4.60;99.90
19496;DHT22;9888;48.606;9.630;2023-02-03T14:54:47;4.70;99.90
19496;DHT22;9888;48.606;9.630;2023-02-03T15:00:42;4.70;99.90
19496;DHT22;9888;48.606;9.630;2023-02-03T15:05:46;4.70;99.90
19496;DHT22;9888;48.606;9.630;2023-02-03T15:08:58;4.80;99.90
19496;DHT22;9888;48.606;9.630;2023-02-03T15:12:22;4.80;99.90
19496;DHT22;9888;48.606;9.630;2023-02-03T15:15:25;4.80;99.90
19496;DHT22;9888;48.606;9.630;2023-02-03T15:18:18;4.80;99.90
19496;DHT22;9888;48.606;9.630;2023-02-03T15:20:55;4.80;99.90
19496;DHT22;9888;48.606;9.630;2023-02-03T15:24:02;4.80;99.90
19496;DHT22;9888;48.606;9.630;2023-02-03T15:26:50;4.80;99.90
19496;DHT22;9888;48.606;9.630;2023-02-03T15:29:34;4.80;99.90
19496;DHT22;9888;48.606;9.630;2023-02-03T15:32:13;4.80;99.90
19496;DHT22;9888;48.606;9.630;2023-02-03T15:35:09;4.80;99.90
19496;DHT22;9888;48.606;9.630;2023-02-03T15:37:47;4.70;99.90
19496;DHT22;9888;48.606;9.630;2023-02-03T15:40:20;4.70;99.90
19496;DHT22;9888;48.606;9.630;2023-02-03T15:46:13;4.70;99.90
19496;DHT22;9888;48.606;9.630;2023-02-03T15:49:03;4.70;99.90
19496;DHT22;9888;48.606;9.630;2023-02-03T15:51:41;4.70;99.90
19496;DHT22;9888;48.606;9.630;2023-02-03T15:54:32;4.70;99.90
19496;DHT22;9888;48.606;9.630;2023-02-03T15:57:18;4.70;99.90
19496;DHT22;9888;48.606;9.630;2023-02-03T15:59:56;4.70;99.90
19496;DHT22;9888;48.606;9.630;2023-02-03T16:02:42;4.70;99.90
19496;DHT22;9888;48.606;9.630;2023-02-03T16:05:30;4.70;99.90
19496;DHT22;9888;48.606;9.630;2023-02-03T16:08:27;4.70;99.90
19496;DHT22;9888;48.606;9.630;2023-02-03T16:11:24;4.70;99.90
19496;DHT22;9888;48.606;9.630;2023-02-03T16:13:55;4.60;99.90
19496;DHT22;9888;48.606;9.630;2023-02-03T16:19:16;4.60;99.90
19496;DHT22;9888;48.606;9.630;2023-02-03T16:21:53;4.50;99.90
19496;DHT22;9888;48.606;9.630;2023-02-03T16:24:38;4.50;99.90
19496;DHT22;9888;48.606;9.630;2023-02-03T16:30:23;4.40;99.90
19496;DHT22;9888;48.606;9.630;2023-02-03T16:33:11;4.30;99.90
19496;DHT22;9888;48.606;9.630;2023-02-03T16:36:11;4.30;99.90
19496;DHT22;9888;48.606;9.630;2023-02-03T16:39:05;4.30;99.90
19496;DHT22;9888;48.606;9.630;2023-02-03T16:41:51;4.30;99.90
19496;DHT22;9888;48.606;9.630;2023-02-03T16:44:37;4.20;99.90
19496;DHT22;9888;48.606;9.630;2023-02-03T16:47:28;4.20;99.90
19496;DHT22;9888;48.606;9.630;2023-02-03T16:50:14;4.20;99.90
19496;DHT22;9888;48.606;9.630;2023-02-03T16:53:00;4.20;99.90
19496;DHT22;9888;48.606;9.630;2023-02-03T16:55:27;4.20;99.90
19496;DHT22;9888;48.606;9.630;2023-02-03T16:57:55;4.20;99.90
19496;DHT22;9888;48.606;9.630;2023-02-03T17:00:25;4.20;99.90
19496;DHT22;9888;48.606;9.630;2023-02-03T17:02:52;4.20;99.90
19496;DHT22;9888;48.606;9.630;2023-02-03T17:05:18;4.20;99.90
19496;DHT22;9888;48.606;9.630;2023-02-03T17:07:46;4.20;99.90
19496;DHT22;9888;48.606;9.630;2023-02-03T17:10:15;4.20;99.90
19496;DHT22;9888;48.606;9.630;2023-02-03T17:12:43;4.20;99.90
19496;DHT22;9888;48.606;9.630;2023-02-03T17:15:10;4.20;99.90
19496;DHT22;9888;48.606;9.630;2023-02-03T17:17:38;4.20;99.90
19496;DHT22;9888;48.606;9.630;2023-02-03T17:20:06;4.20;99.90
19496;DHT22;9888;48.606;9.630;2023-02-03T17:22:33;4.20;99.90
19496;DHT22;9888;48.606;9.630;2023-02-03T17:25:02;4.20;99.90
19496;DHT22;9888;48.606;9.630;2023-02-03T17:27:29;4.30;99.90
19496;DHT22;9888;48.606;9.630;2023-02-03T17:29:56;4.20;99.90
19496;DHT22;9888;48.606;9.630;2023-02-03T17:32:23;4.20;99.90
19496;DHT22;9888;48.606;9.630;2023-02-03T17:35:20;4.30;99.90
19496;DHT22;9888;48.606;9.630;2023-02-03T17:37:48;4.30;99.90
19496;DHT22;9888;48.606;9.630;2023-02-03T17:40:15;4.30;99.90
19496;DHT22;9888;48.606;9.630;2023-02-03T17:42:45;4.30;99.90
19496;DHT22;9888;48.606;9.630;2023-02-03T17:45:13;4.30;99.90
19496;DHT22;9888;48.606;9.630;2023-02-03T17:47:41;4.30;99.90
19496;DHT22;9888;48.606;9.630;2023-02-03T17:50:09;4.30;99.90
19496;DHT22;9888;48.606;9.630;2023-02-03T17:52:38;4.40;99.90
19496;DHT22;9888;48.606;9.630;2023-02-03T17:55:07;4.40;99.90
19496;DHT22;9888;48.606;9.630;2023-02-03T17:57:38;4.40;99.90
19496;DHT22;9888;48.606;9.630;2023-02-03T18:00:06;4.40;99.90
19496;DHT22;9888;48.606;9.630;2023-02-03T18:02:39;4.40;99.90
19496;DHT22;9888;48.606;9.630;2023-02-03T18:05:08;4.40;99.90
19496;DHT22;9888;48.606;9.630;2023-02-03T18:07:36;4.50;99.90
19496;DHT22;9888;48.606;9.630;2023-02-03T18:10:03;4.50;99.90
19496;DHT22;9888;48.606;9.630;2023-02-03T18:12:32;4.50;99.90
19496;DHT22;9888;48.606;9.630;2023-02-03T18:15:00;4.50;99.90
19496;DHT22;9888;48.606;9.630;2023-02-03T18:17:27;4.50;99.90
19496;DHT22;9888;48.606;9.630;2023-02-03T18:19:55;4.50;99.90
19496;DHT22;9888;48.606;9.630;2023-02-03T18:22:22;4.50;99.90
19496;DHT22;9888;48.606;9.630;2023-02-03T18:24:49;4.50;99.90
19496;DHT22;9888;48.606;9.630;2023-02-03T18:27:24;4.50;99.90
19496;DHT22;9888;48.606;9.630;2023-02-03T18:29:53;4.50;99.90
19496;DHT22;9888;48.606;9.630;2023-02-03T18:35:44;4.50;99.90
19496;DHT22;9888;48.606;9.630;2023-02-03T18:38:11;4.50;99.90
19496;DHT22;9888;48.606;9.630;2023-02-03T18:44:01;4.50;99.90
19496;DHT22;9888;48.606;9.630;2023-02-03T18:46:30;4.50;99.90
19496;DHT22;9888;48.606;9.630;2023-02-03T18:48:58;4.50;99.90
19496;DHT22;9888;48.606;9.630;2023-02-03T18:51:25;4.50;99.90
19496;DHT22;9888;48.606;9.630;2023-02-03T18:53:57;4.60;99.90
19496;DHT22;9888;48.606;9.630;2023-02-03T18:56:28;4.50;99.90
19496;DHT22;9888;48.606;9.630;2023-02-03T18:59:09;4.60;99.90
19496;DHT22;9888;48.606;9.630;2023-02-03T19:01:37;4.60;99.90
19496;DHT22;9888;48.606;9.630;2023-02-03T19:04:06;4.60;99.90
19496;DHT22;9888;48.606;9.630;2023-02-03T19:06:35;4.60;99.90
19496;DHT22;9888;48.606;9.630;2023-02-03T19:09:03;4.60;99.90
19496;DHT22;9888;48.606;9.630;2023-02-03T19:11:32;4.70;99.90
19496;DHT22;9888;48.606;9.630;2023-02-03T19:14:00;4.60;99.90
19496;DHT22;9888;48.606;9.630;2023-02-03T19:16:27;4.60;99.90
19496;DHT22;9888;48.606;9.630;2023-02-03T19:18:56;4.60;99.90
19496;DHT22;9888;48.606;9.630;2023-02-03T19:21:23;4.60;99.90
19496;DHT22;9888;48.606;9.630;2023-02-03T19:23:51;4.60;99.90
19496;DHT22;9888;48.606;9.630;2023-02-03T19:26:18;4.60;99.90
19496;DHT22;9888;48.606;9.630;2023-02-03T19:28:48;4.70;99.90
19496;DHT22;9888;48.606;9.630;2023-02-03T19:31:16;4.60;99.90